sensor_id;sensor_type;location;lat;lon;timestamp;P1;durP1;ratioP1;P2;durP2;ratioP2
21022;SDS011;10669;51.076;3.714;2022-09-28T00:01:05;9.17;;;5.73;;
21022;SDS011;10669;51.076;3.714;2022-09-28T00:03:34;9.43;;;5.97;;
21022;SDS011;10669;51.076;3.714;2022-09-28T00:06:10;8.83;;;5.73;;
21022;SDS011;10669;51.076;3.714;2022-09-28T00:08:38;8.83;;;5.60;;
21022;SDS011;10669;51.076;3.714;2022-09-28T00:11:04;9.23;;;5.23;;
21022;SDS011;10669;51.076;3.714;2022-09-28T00:13:32;9.33;;;5.60;;
21022;SDS011;10669;51.076;3.714;2022-09-28T00:15:59;11.77;;;5.03;;
21022;SDS011;10669;51.076;3.714;2022-09-28T00:18:29;7.50;;;4.40;;
21022;SDS011;10669;51.076;3.714;2022-09-28T00:21:04;8.20;;;4.23;;
21022;SDS011;10669;51.076;3.714;2022-09-28T00:23:37;7.47;;;3.53;;
21022;SDS011;10669;51.076;3.714;2022-09-28T00:26:21;11.80;;;4.63;;
21022;SDS011;10669;51.076;3.714;2022-09-28T00:28:50;8.40;;;3.97;;
21022;SDS011;10669;51.076;3.714;2022-09-28T00:31:16;10.73;;;4.27;;
21022;SDS011;10669;51.076;3.714;2022-09-28T00:33:43;7.00;;;3.87;;
21022;SDS011;10669;51.076;3.714;2022-09-28T00:36:09;7.17;;;3.90;;
21022;SDS011;10669;51.076;3.714;2022-09-28T00:38:34;5.97;;;4.07;;
21022;SDS011;10669;51.076;3.714;2022-09-28T00:41:00;10.50;;;3.70;;
21022;SDS011;10669;51.076;3.714;2022-09-28T00:43:26;8.50;;;4.27;;
21022;SDS011;10669;51.076;3.714;2022-09-28T00:45:59;8.07;;;3.70;;
21022;SDS011;10669;51.076;3.714;2022-09-28T00:48:31;8.73;;;4.07;;
21022;SDS011;10669;51.076;3.714;2022-09-28T00:51:02;9.37;;;4.20;;
21022;SDS011;10669;51.076;3.714;2022-09-28T00:53:34;6.13;;;4.20;;
21022;SDS011;10669;51.076;3.714;2022-09-28T00:56:05;5.03;;;3.70;;
21022;SDS011;10669;51.076;3.714;2022-09-28T00:58:37;6.93;;;4.30;;
21022;SDS011;10669;51.076;3.714;2022-09-28T01:01:06;7.97;;;4.33;;
21022;SDS011;10669;51.076;3.714;2022-09-28T01:03:33;7.47;;;4.40;;
21022;SDS011;10669;51.076;3.714;2022-09-28T01:05:59;13.47;;;4.00;;
21022;SDS011;10669;51.076;3.714;2022-09-28T01:08:28;7.83;;;4.00;;
21022;SDS011;10669;51.076;3.714;2022-09-28T01:10:59;5.53;;;4.27;;
21022;SDS011;10669;51.076;3.714;2022-09-28T01:13:27;6.43;;;4.37;;
21022;SDS011;10669;51.076;3.714;2022-09-28T01:15:58;8.97;;;3.97;;
21022;SDS011;10669;51.076;3.714;2022-09-28T01:21:19;8.43;;;4.00;;
21022;SDS011;10669;51.076;3.714;2022-09-28T01:24:07;8.60;;;4.00;;
21022;SDS011;10669;51.076;3.714;2022-09-28T01:31:58;12.37;;;5.07;;
21022;SDS011;10669;51.076;3.714;2022-09-28T01:34:35;9.37;;;4.87;;
21022;SDS011;10669;51.076;3.714;2022-09-28T01:37:08;9.37;;;5.33;;
21022;SDS011;10669;51.076;3.714;2022-09-28T01:39:38;11.23;;;4.97;;
21022;SDS011;10669;51.076;3.714;2022-09-28T01:42:09;8.73;;;5.20;;
21022;SDS011;10669;51.076;3.714;2022-09-28T01:44:41;8.03;;;4.83;;
21022;SDS011;10669;51.076;3.714;2022-09-28T01:47:10;8.70;;;4.80;;
21022;SDS011;10669;51.076;3.714;2022-09-28T01:49:40;7.53;;;4.70;;
21022;SDS011;10669;51.076;3.714;2022-09-28T01:54:54;12.10;;;4.33;;
21022;SDS011;10669;51.076;3.714;2022-09-28T01:57:31;9.10;;;4.20;;
21022;SDS011;10669;51.076;3.714;2022-09-28T02:00:06;6.97;;;4.20;;
21022;SDS011;10669;51.076;3.714;2022-09-28T02:02:38;11.43;;;4.67;;
21022;SDS011;10669;51.076;3.714;2022-09-28T02:05:13;7.70;;;4.87;;
21022;SDS011;10669;51.076;3.714;2022-09-28T02:10:18;9.90;;;4.17;;
21022;SDS011;10669;51.076;3.714;2022-09-28T02:12:53;7.70;;;4.33;;
21022;SDS011;10669;51.076;3.714;2022-09-28T02:15:41;10.13;;;4.77;;
21022;SDS011;10669;51.076;3.714;2022-09-28T02:18:14;4.20;;;3.80;;
21022;SDS011;10669;51.076;3.714;2022-09-28T02:20:40;10.20;;;4.30;;
21022;SDS011;10669;51.076;3.714;2022-09-28T02:23:12;4.87;;;4.17;;
21022;SDS011;10669;51.076;3.714;2022-09-28T02:25:41;11.80;;;4.43;;
21022;SDS011;10669;51.076;3.714;2022-09-28T02:28:11;7.00;;;4.17;;
21022;SDS011;10669;51.076;3.714;2022-09-28T02:30:39;9.10;;;4.60;;
21022;SDS011;10669;51.076;3.714;2022-09-28T02:35:36;4.83;;;4.40;;
21022;SDS011;10669;51.076;3.714;2022-09-28T02:38:03;7.37;;;4.47;;
21022;SDS011;10669;51.076;3.714;2022-09-28T02:40:30;10.70;;;5.23;;
21022;SDS011;10669;51.076;3.714;2022-09-28T02:43:03;6.13;;;4.90;;
21022;SDS011;10669;51.076;3.714;2022-09-28T02:48:58;6.27;;;5.30;;
21022;SDS011;10669;51.076;3.714;2022-09-28T02:51:26;10.47;;;5.73;;
21022;SDS011;10669;51.076;3.714;2022-09-28T02:54:05;7.93;;;5.23;;
21022;SDS011;10669;51.076;3.714;2022-09-28T02:59:40;7.53;;;5.30;;
21022;SDS011;10669;51.076;3.714;2022-09-28T03:05:06;12.10;;;5.67;;
21022;SDS011;10669;51.076;3.714;2022-09-28T03:12:49;9.83;;;5.40;;
21022;SDS011;10669;51.076;3.714;2022-09-28T03:15:23;7.90;;;5.67;;
21022;SDS011;10669;51.076;3.714;2022-09-28T03:17:51;12.73;;;6.43;;
21022;SDS011;10669;51.076;3.714;2022-09-28T03:20:17;6.90;;;5.33;;
21022;SDS011;10669;51.076;3.714;2022-09-28T03:22:45;10.20;;;6.23;;
21022;SDS011;10669;51.076;3.714;2022-09-28T03:25:11;6.50;;;5.23;;
21022;SDS011;10669;51.076;3.714;2022-09-28T03:27:37;7.17;;;5.20;;
21022;SDS011;10669;51.076;3.714;2022-09-28T03:30:03;9.47;;;5.70;;
21022;SDS011;10669;51.076;3.714;2022-09-28T03:32:30;10.17;;;5.90;;
21022;SDS011;10669;51.076;3.714;2022-09-28T03:34:56;7.40;;;5.43;;
21022;SDS011;10669;51.076;3.714;2022-09-28T03:37:22;10.73;;;5.70;;
21022;SDS011;10669;51.076;3.714;2022-09-28T03:39:47;8.50;;;5.73;;
21022;SDS011;10669;51.076;3.714;2022-09-28T03:42:14;11.50;;;6.53;;
21022;SDS011;10669;51.076;3.714;2022-09-28T03:44:41;8.73;;;5.77;;
21022;SDS011;10669;51.076;3.714;2022-09-28T03:47:07;9.43;;;6.37;;
21022;SDS011;10669;51.076;3.714;2022-09-28T03:49:33;13.87;;;6.57;;
21022;SDS011;10669;51.076;3.714;2022-09-28T03:51:59;14.60;;;6.77;;
21022;SDS011;10669;51.076;3.714;2022-09-28T03:54:24;10.67;;;6.70;;
21022;SDS011;10669;51.076;3.714;2022-09-28T03:56:51;10.10;;;7.00;;
21022;SDS011;10669;51.076;3.714;2022-09-28T03:59:17;14.10;;;7.43;;
21022;SDS011;10669;51.076;3.714;2022-09-28T04:01:47;8.27;;;6.73;;
21022;SDS011;10669;51.076;3.714;2022-09-28T04:04:13;12.37;;;6.83;;
21022;SDS011;10669;51.076;3.714;2022-09-28T04:06:39;13.53;;;6.73;;
21022;SDS011;10669;51.076;3.714;2022-09-28T04:09:06;14.27;;;6.67;;
21022;SDS011;10669;51.076;3.714;2022-09-28T04:11:34;9.97;;;5.97;;
21022;SDS011;10669;51.076;3.714;2022-09-28T04:14:01;10.93;;;6.13;;
21022;SDS011;10669;51.076;3.714;2022-09-28T04:16:27;10.80;;;6.87;;
21022;SDS011;10669;51.076;3.714;2022-09-28T04:18:53;9.47;;;6.63;;
21022;SDS011;10669;51.076;3.714;2022-09-28T04:21:19;9.03;;;6.67;;
21022;SDS011;10669;51.076;3.714;2022-09-28T04:23:46;11.50;;;6.63;;
21022;SDS011;10669;51.076;3.714;2022-09-28T04:26:14;10.83;;;7.07;;
21022;SDS011;10669;51.076;3.714;2022-09-28T04:28:45;10.77;;;6.90;;
21022;SDS011;10669;51.076;3.714;2022-09-28T04:31:35;11.30;;;7.83;;
21022;SDS011;10669;51.076;3.714;2022-09-28T04:34:02;13.90;;;8.30;;
21022;SDS011;10669;51.076;3.714;2022-09-28T04:36:28;13.77;;;8.63;;
21022;SDS011;10669;51.076;3.714;2022-09-28T04:38:53;14.27;;;8.63;;
21022;SDS011;10669;51.076;3.714;2022-09-28T04:41:20;14.97;;;8.87;;
21022;SDS011;10669;51.076;3.714;2022-09-28T04:43:46;20.83;;;11.90;;
21022;SDS011;10669;51.076;3.714;2022-09-28T04:46:11;21.70;;;10.77;;
21022;SDS011;10669;51.076;3.714;2022-09-28T04:48:37;16.90;;;11.47;;
21022;SDS011;10669;51.076;3.714;2022-09-28T04:51:04;21.43;;;12.93;;
21022;SDS011;10669;51.076;3.714;2022-09-28T04:53:29;20.77;;;13.73;;
21022;SDS011;10669;51.076;3.714;2022-09-28T04:55:59;24.43;;;12.47;;
21022;SDS011;10669;51.076;3.714;2022-09-28T04:58:28;18.60;;;11.87;;
21022;SDS011;10669;51.076;3.714;2022-09-28T05:00:59;24.60;;;12.47;;
21022;SDS011;10669;51.076;3.714;2022-09-28T05:03:28;19.10;;;11.90;;
21022;SDS011;10669;51.076;3.714;2022-09-28T05:05:54;18.10;;;11.60;;
21022;SDS011;10669;51.076;3.714;2022-09-28T05:08:21;20.93;;;11.87;;
21022;SDS011;10669;51.076;3.714;2022-09-28T05:10:48;19.80;;;10.90;;
21022;SDS011;10669;51.076;3.714;2022-09-28T05:13:32;22.67;;;12.63;;
21022;SDS011;10669;51.076;3.714;2022-09-28T05:16:04;19.97;;;11.40;;
21022;SDS011;10669;51.076;3.714;2022-09-28T05:18:30;25.07;;;12.20;;
21022;SDS011;10669;51.076;3.714;2022-09-28T05:20:55;16.90;;;12.30;;
21022;SDS011;10669;51.076;3.714;2022-09-28T05:23:21;24.73;;;13.20;;
21022;SDS011;10669;51.076;3.714;2022-09-28T05:25:47;22.20;;;15.27;;
21022;SDS011;10669;51.076;3.714;2022-09-28T05:28:12;23.60;;;15.33;;
21022;SDS011;10669;51.076;3.714;2022-09-28T05:30:38;21.23;;;14.20;;
21022;SDS011;10669;51.076;3.714;2022-09-28T05:33:05;20.60;;;13.90;;
21022;SDS011;10669;51.076;3.714;2022-09-28T05:35:31;29.27;;;15.33;;
21022;SDS011;10669;51.076;3.714;2022-09-28T05:38:02;20.73;;;14.03;;
21022;SDS011;10669;51.076;3.714;2022-09-28T05:40:31;26.17;;;13.67;;
21022;SDS011;10669;51.076;3.714;2022-09-28T05:43:00;28.50;;;14.77;;
21022;SDS011;10669;51.076;3.714;2022-09-28T05:45:26;25.80;;;14.00;;
21022;SDS011;10669;51.076;3.714;2022-09-28T05:47:52;24.97;;;16.23;;
21022;SDS011;10669;51.076;3.714;2022-09-28T05:50:18;26.60;;;14.37;;
21022;SDS011;10669;51.076;3.714;2022-09-28T05:52:45;21.50;;;14.40;;
21022;SDS011;10669;51.076;3.714;2022-09-28T05:55:11;26.53;;;15.00;;
21022;SDS011;10669;51.076;3.714;2022-09-28T05:57:37;26.80;;;14.50;;
21022;SDS011;10669;51.076;3.714;2022-09-28T06:00:03;23.83;;;14.60;;
21022;SDS011;10669;51.076;3.714;2022-09-28T06:02:31;26.27;;;14.77;;
21022;SDS011;10669;51.076;3.714;2022-09-28T06:04:57;34.90;;;16.53;;
21022;SDS011;10669;51.076;3.714;2022-09-28T06:07:23;23.50;;;15.33;;
21022;SDS011;10669;51.076;3.714;2022-09-28T06:09:49;24.53;;;16.23;;
21022;SDS011;10669;51.076;3.714;2022-09-28T06:12:14;25.87;;;15.17;;
21022;SDS011;10669;51.076;3.714;2022-09-28T06:14:40;25.77;;;14.07;;
21022;SDS011;10669;51.076;3.714;2022-09-28T06:17:06;24.90;;;14.07;;
21022;SDS011;10669;51.076;3.714;2022-09-28T06:19:32;22.50;;;13.10;;
21022;SDS011;10669;51.076;3.714;2022-09-28T06:21:57;22.77;;;13.40;;
21022;SDS011;10669;51.076;3.714;2022-09-28T06:24:23;27.13;;;15.87;;
21022;SDS011;10669;51.076;3.714;2022-09-28T06:26:48;26.33;;;14.67;;
21022;SDS011;10669;51.076;3.714;2022-09-28T06:29:14;30.53;;;16.90;;
21022;SDS011;10669;51.076;3.714;2022-09-28T06:31:43;31.00;;;17.23;;
21022;SDS011;10669;51.076;3.714;2022-09-28T06:34:10;27.33;;;16.23;;
21022;SDS011;10669;51.076;3.714;2022-09-28T06:36:37;27.67;;;16.13;;
21022;SDS011;10669;51.076;3.714;2022-09-28T06:39:04;31.83;;;16.00;;
21022;SDS011;10669;51.076;3.714;2022-09-28T06:41:30;33.30;;;17.00;;
21022;SDS011;10669;51.076;3.714;2022-09-28T06:43:56;27.47;;;17.13;;
21022;SDS011;10669;51.076;3.714;2022-09-28T06:46:21;30.50;;;18.77;;
21022;SDS011;10669;51.076;3.714;2022-09-28T06:48:47;27.93;;;17.07;;
21022;SDS011;10669;51.076;3.714;2022-09-28T06:51:14;29.73;;;18.80;;
21022;SDS011;10669;51.076;3.714;2022-09-28T06:53:40;40.63;;;18.77;;
21022;SDS011;10669;51.076;3.714;2022-09-28T06:56:07;30.13;;;18.33;;
21022;SDS011;10669;51.076;3.714;2022-09-28T06:58:35;39.77;;;19.53;;
21022;SDS011;10669;51.076;3.714;2022-09-28T07:01:03;32.83;;;19.03;;
21022;SDS011;10669;51.076;3.714;2022-09-28T07:03:29;36.37;;;18.90;;
21022;SDS011;10669;51.076;3.714;2022-09-28T07:05:55;31.80;;;19.33;;
21022;SDS011;10669;51.076;3.714;2022-09-28T07:08:22;28.90;;;17.53;;
21022;SDS011;10669;51.076;3.714;2022-09-28T07:10:49;30.87;;;19.53;;
21022;SDS011;10669;51.076;3.714;2022-09-28T07:13:21;29.33;;;16.90;;
21022;SDS011;10669;51.076;3.714;2022-09-28T07:15:48;32.00;;;17.73;;
21022;SDS011;10669;51.076;3.714;2022-09-28T07:18:19;30.00;;;18.30;;
21022;SDS011;10669;51.076;3.714;2022-09-28T07:20:45;32.17;;;18.00;;
21022;SDS011;10669;51.076;3.714;2022-09-28T07:23:11;34.93;;;19.93;;
21022;SDS011;10669;51.076;3.714;2022-09-28T07:25:37;23.77;;;15.60;;
21022;SDS011;10669;51.076;3.714;2022-09-28T07:28:09;30.80;;;18.83;;
21022;SDS011;10669;51.076;3.714;2022-09-28T07:30:36;27.17;;;18.87;;
21022;SDS011;10669;51.076;3.714;2022-09-28T07:33:02;31.40;;;18.27;;
21022;SDS011;10669;51.076;3.714;2022-09-28T07:35:30;35.63;;;17.40;;
21022;SDS011;10669;51.076;3.714;2022-09-28T07:37:59;33.13;;;17.77;;
21022;SDS011;10669;51.076;3.714;2022-09-28T07:40:27;32.57;;;17.93;;
21022;SDS011;10669;51.076;3.714;2022-09-28T07:43:11;29.63;;;17.00;;
21022;SDS011;10669;51.076;3.714;2022-09-28T07:45:37;30.17;;;17.17;;
21022;SDS011;10669;51.076;3.714;2022-09-28T07:48:04;23.60;;;17.10;;
21022;SDS011;10669;51.076;3.714;2022-09-28T07:50:30;25.97;;;17.13;;
21022;SDS011;10669;51.076;3.714;2022-09-28T07:52:57;36.47;;;18.53;;
21022;SDS011;10669;51.076;3.714;2022-09-28T07:55:25;41.53;;;17.60;;
21022;SDS011;10669;51.076;3.714;2022-09-28T07:57:57;35.60;;;18.67;;
21022;SDS011;10669;51.076;3.714;2022-09-28T08:00:29;31.83;;;17.77;;
21022;SDS011;10669;51.076;3.714;2022-09-28T08:03:00;28.60;;;17.20;;
21022;SDS011;10669;51.076;3.714;2022-09-28T08:05:27;32.63;;;15.87;;
21022;SDS011;10669;51.076;3.714;2022-09-28T08:07:55;27.27;;;15.10;;
21022;SDS011;10669;51.076;3.714;2022-09-28T08:10:24;31.50;;;16.33;;
21022;SDS011;10669;51.076;3.714;2022-09-28T08:12:54;21.47;;;14.37;;
21022;SDS011;10669;51.076;3.714;2022-09-28T08:15:21;18.43;;;13.00;;
21022;SDS011;10669;51.076;3.714;2022-09-28T08:17:47;21.20;;;13.60;;
21022;SDS011;10669;51.076;3.714;2022-09-28T08:20:14;18.70;;;12.43;;
21022;SDS011;10669;51.076;3.714;2022-09-28T08:23:04;23.80;;;12.27;;
21022;SDS011;10669;51.076;3.714;2022-09-28T08:25:31;21.27;;;11.07;;
21022;SDS011;10669;51.076;3.714;2022-09-28T08:27:57;17.17;;;10.53;;
21022;SDS011;10669;51.076;3.714;2022-09-28T08:30:24;17.57;;;10.70;;
21022;SDS011;10669;51.076;3.714;2022-09-28T08:32:51;17.37;;;11.43;;
21022;SDS011;10669;51.076;3.714;2022-09-28T08:35:16;13.80;;;9.70;;
21022;SDS011;10669;51.076;3.714;2022-09-28T08:37:42;15.00;;;9.80;;
21022;SDS011;10669;51.076;3.714;2022-09-28T08:40:17;14.70;;;9.50;;
21022;SDS011;10669;51.076;3.714;2022-09-28T08:42:57;14.73;;;8.67;;
21022;SDS011;10669;51.076;3.714;2022-09-28T08:45:28;17.20;;;9.93;;
21022;SDS011;10669;51.076;3.714;2022-09-28T08:50:48;15.80;;;9.57;;
21022;SDS011;10669;51.076;3.714;2022-09-28T08:56:11;17.63;;;9.43;;
21022;SDS011;10669;51.076;3.714;2022-09-28T08:58:44;15.67;;;9.77;;
21022;SDS011;10669;51.076;3.714;2022-09-28T09:01:12;12.67;;;9.17;;
21022;SDS011;10669;51.076;3.714;2022-09-28T09:03:42;16.63;;;9.30;;
21022;SDS011;10669;51.076;3.714;2022-09-28T09:17:28;10.17;;;7.87;;
21022;SDS011;10669;51.076;3.714;2022-09-28T09:20:11;12.00;;;7.43;;
21022;SDS011;10669;51.076;3.714;2022-09-28T09:25:26;9.77;;;7.43;;
21022;SDS011;10669;51.076;3.714;2022-09-28T09:31:11;12.00;;;7.80;;
21022;SDS011;10669;51.076;3.714;2022-09-28T09:42:20;13.30;;;6.10;;
21022;SDS011;10669;51.076;3.714;2022-09-28T09:47:59;5.53;;;4.70;;
21022;SDS011;10669;51.076;3.714;2022-09-28T09:53:14;10.30;;;3.57;;
21022;SDS011;10669;51.076;3.714;2022-09-28T09:55:59;7.93;;;3.20;;
21022;SDS011;10669;51.076;3.714;2022-09-28T09:58:49;7.27;;;3.10;;
21022;SDS011;10669;51.076;3.714;2022-09-28T10:01:20;7.80;;;2.87;;
21022;SDS011;10669;51.076;3.714;2022-09-28T10:03:53;2.97;;;2.23;;
21022;SDS011;10669;51.076;3.714;2022-09-28T10:06:31;4.90;;;2.50;;
21022;SDS011;10669;51.076;3.714;2022-09-28T10:09:08;5.60;;;2.50;;
21022;SDS011;10669;51.076;3.714;2022-09-28T10:11:40;7.03;;;2.23;;
21022;SDS011;10669;51.076;3.714;2022-09-28T10:14:18;5.87;;;2.60;;
21022;SDS011;10669;51.076;3.714;2022-09-28T10:16:46;6.30;;;2.87;;
21022;SDS011;10669;51.076;3.714;2022-09-28T10:19:15;7.70;;;3.13;;
21022;SDS011;10669;51.076;3.714;2022-09-28T10:21:44;3.43;;;1.60;;
21022;SDS011;10669;51.076;3.714;2022-09-28T10:24:55;5.10;;;1.30;;
21022;SDS011;10669;51.076;3.714;2022-09-28T10:27:22;8.70;;;1.50;;
21022;SDS011;10669;51.076;3.714;2022-09-28T10:30:10;6.43;;;1.27;;
21022;SDS011;10669;51.076;3.714;2022-09-28T10:37:56;5.17;;;1.90;;
21022;SDS011;10669;51.076;3.714;2022-09-28T10:40:27;3.27;;;1.23;;
21022;SDS011;10669;51.076;3.714;2022-09-28T10:45:59;3.40;;;1.67;;
21022;SDS011;10669;51.076;3.714;2022-09-28T10:48:25;4.97;;;2.20;;
21022;SDS011;10669;51.076;3.714;2022-09-28T10:51:05;4.00;;;1.20;;
21022;SDS011;10669;51.076;3.714;2022-09-28T10:53:32;5.70;;;1.60;;
21022;SDS011;10669;51.076;3.714;2022-09-28T10:56:22;3.40;;;1.00;;
21022;SDS011;10669;51.076;3.714;2022-09-28T10:58:50;1.13;;;1.03;;
21022;SDS011;10669;51.076;3.714;2022-09-28T11:01:17;2.90;;;1.13;;
21022;SDS011;10669;51.076;3.714;2022-09-28T11:03:56;4.33;;;1.30;;
21022;SDS011;10669;51.076;3.714;2022-09-28T11:06:42;1.83;;;1.40;;
21022;SDS011;10669;51.076;3.714;2022-09-28T11:09:25;4.23;;;1.30;;
21022;SDS011;10669;51.076;3.714;2022-09-28T11:11:58;5.37;;;0.90;;
21022;SDS011;10669;51.076;3.714;2022-09-28T11:14:32;2.83;;;1.10;;
21022;SDS011;10669;51.076;3.714;2022-09-28T11:19:53;5.20;;;1.17;;
21022;SDS011;10669;51.076;3.714;2022-09-28T11:24:50;1.60;;;1.07;;
21022;SDS011;10669;51.076;3.714;2022-09-28T11:27:23;2.97;;;1.00;;
21022;SDS011;10669;51.076;3.714;2022-09-28T11:29:52;4.10;;;1.00;;
21022;SDS011;10669;51.076;3.714;2022-09-28T11:32:23;2.63;;;1.00;;
21022;SDS011;10669;51.076;3.714;2022-09-28T11:34:52;3.43;;;1.00;;
21022;SDS011;10669;51.076;3.714;2022-09-28T11:37:32;3.93;;;1.00;;
21022;SDS011;10669;51.076;3.714;2022-09-28T11:40:13;3.00;;;1.00;;
21022;SDS011;10669;51.076;3.714;2022-09-28T11:43:46;2.17;;;0.93;;
21022;SDS011;10669;51.076;3.714;2022-09-28T11:48:43;4.10;;;0.80;;
21022;SDS011;10669;51.076;3.714;2022-09-28T11:51:26;5.83;;;1.00;;
21022;SDS011;10669;51.076;3.714;2022-09-28T11:54:00;1.13;;;0.80;;
21022;SDS011;10669;51.076;3.714;2022-09-28T11:56:38;1.40;;;0.70;;
21022;SDS011;10669;51.076;3.714;2022-09-28T12:01:46;2.30;;;0.90;;
21022;SDS011;10669;51.076;3.714;2022-09-28T12:04:22;5.43;;;1.33;;
21022;SDS011;10669;51.076;3.714;2022-09-28T12:09:49;6.90;;;2.33;;
21022;SDS011;10669;51.076;3.714;2022-09-28T12:12:29;4.23;;;1.57;;
21022;SDS011;10669;51.076;3.714;2022-09-28T12:15:03;2.90;;;1.03;;
21022;SDS011;10669;51.076;3.714;2022-09-28T12:17:45;2.00;;;1.10;;
21022;SDS011;10669;51.076;3.714;2022-09-28T12:20:29;9.57;;;1.10;;
21022;SDS011;10669;51.076;3.714;2022-09-28T12:25:27;3.10;;;1.10;;
21022;SDS011;10669;51.076;3.714;2022-09-28T12:28:05;2.63;;;0.90;;
21022;SDS011;10669;51.076;3.714;2022-09-28T12:30:36;2.50;;;1.03;;
21022;SDS011;10669;51.076;3.714;2022-09-28T12:35:54;4.50;;;1.07;;
21022;SDS011;10669;51.076;3.714;2022-09-28T12:38:37;2.67;;;0.70;;
21022;SDS011;10669;51.076;3.714;2022-09-28T12:43:58;2.13;;;0.70;;
21022;SDS011;10669;51.076;3.714;2022-09-28T12:51:55;3.93;;;0.90;;
21022;SDS011;10669;51.076;3.714;2022-09-28T13:02:57;1.70;;;0.70;;
21022;SDS011;10669;51.076;3.714;2022-09-28T13:19:23;5.63;;;1.00;;
21022;SDS011;10669;51.076;3.714;2022-09-28T13:24:42;4.47;;;1.00;;
21022;SDS011;10669;51.076;3.714;2022-09-28T13:27:12;4.10;;;0.97;;
21022;SDS011;10669;51.076;3.714;2022-09-28T13:29:44;2.57;;;0.80;;
21022;SDS011;10669;51.076;3.714;2022-09-28T13:32:15;1.40;;;0.60;;
21022;SDS011;10669;51.076;3.714;2022-09-28T13:34:42;2.87;;;0.87;;
21022;SDS011;10669;51.076;3.714;2022-09-28T13:42:08;1.90;;;0.70;;
21022;SDS011;10669;51.076;3.714;2022-09-28T13:50:26;4.63;;;0.80;;
21022;SDS011;10669;51.076;3.714;2022-09-28T13:58:35;4.83;;;0.93;;
21022;SDS011;10669;51.076;3.714;2022-09-28T14:01:11;2.83;;;0.80;;
21022;SDS011;10669;51.076;3.714;2022-09-28T14:03:43;0.93;;;0.70;;
21022;SDS011;10669;51.076;3.714;2022-09-28T14:06:28;1.33;;;0.73;;
21022;SDS011;10669;51.076;3.714;2022-09-28T14:11:41;1.77;;;0.87;;
21022;SDS011;10669;51.076;3.714;2022-09-28T14:16:37;5.00;;;0.97;;
21022;SDS011;10669;51.076;3.714;2022-09-28T14:24:49;3.87;;;0.97;;
21022;SDS011;10669;51.076;3.714;2022-09-28T14:30:24;5.10;;;0.90;;
21022;SDS011;10669;51.076;3.714;2022-09-28T14:32:56;4.70;;;1.20;;
21022;SDS011;10669;51.076;3.714;2022-09-28T14:35:30;5.57;;;1.40;;
21022;SDS011;10669;51.076;3.714;2022-09-28T14:38:13;2.80;;;1.03;;
21022;SDS011;10669;51.076;3.714;2022-09-28T14:41:04;3.23;;;1.00;;
21022;SDS011;10669;51.076;3.714;2022-09-28T14:46:33;4.30;;;1.10;;
21022;SDS011;10669;51.076;3.714;2022-09-28T14:51:42;4.60;;;1.10;;
21022;SDS011;10669;51.076;3.714;2022-09-28T14:59:25;2.37;;;0.80;;
21022;SDS011;10669;51.076;3.714;2022-09-28T15:01:56;1.47;;;0.70;;
21022;SDS011;10669;51.076;3.714;2022-09-28T15:04:30;3.37;;;0.80;;
21022;SDS011;10669;51.076;3.714;2022-09-28T15:07:00;2.47;;;0.80;;
21022;SDS011;10669;51.076;3.714;2022-09-28T15:09:26;1.70;;;0.80;;
21022;SDS011;10669;51.076;3.714;2022-09-28T15:11:57;1.90;;;0.73;;
21022;SDS011;10669;51.076;3.714;2022-09-28T15:14:30;2.93;;;0.80;;
21022;SDS011;10669;51.076;3.714;2022-09-28T15:17:00;2.73;;;1.10;;
21022;SDS011;10669;51.076;3.714;2022-09-28T15:19:49;1.80;;;0.70;;
21022;SDS011;10669;51.076;3.714;2022-09-28T15:22:28;2.93;;;0.73;;
21022;SDS011;10669;51.076;3.714;2022-09-28T15:27:21;2.50;;;0.80;;
21022;SDS011;10669;51.076;3.714;2022-09-28T15:29:57;4.00;;;0.70;;
21022;SDS011;10669;51.076;3.714;2022-09-28T15:32:39;2.60;;;0.80;;
21022;SDS011;10669;51.076;3.714;2022-09-28T15:35:10;2.50;;;1.03;;
21022;SDS011;10669;51.076;3.714;2022-09-28T15:37:41;5.80;;;1.00;;
21022;SDS011;10669;51.076;3.714;2022-09-28T15:40:15;4.53;;;0.77;;
21022;SDS011;10669;51.076;3.714;2022-09-28T15:42:55;2.10;;;0.83;;
21022;SDS011;10669;51.076;3.714;2022-09-28T15:45:25;5.10;;;1.17;;
21022;SDS011;10669;51.076;3.714;2022-09-28T15:48:18;4.67;;;1.17;;
21022;SDS011;10669;51.076;3.714;2022-09-28T15:50:56;2.23;;;1.10;;
21022;SDS011;10669;51.076;3.714;2022-09-28T15:53:24;2.07;;;0.90;;
21022;SDS011;10669;51.076;3.714;2022-09-28T15:55:50;2.40;;;1.10;;
21022;SDS011;10669;51.076;3.714;2022-09-28T15:58:20;3.33;;;1.70;;
21022;SDS011;10669;51.076;3.714;2022-09-28T16:00:47;4.50;;;1.30;;
21022;SDS011;10669;51.076;3.714;2022-09-28T16:06:23;2.83;;;1.10;;
21022;SDS011;10669;51.076;3.714;2022-09-28T16:16:25;3.93;;;1.43;;
21022;SDS011;10669;51.076;3.714;2022-09-28T16:19:11;2.23;;;1.20;;
21022;SDS011;10669;51.076;3.714;2022-09-28T16:21:47;7.57;;;1.90;;
21022;SDS011;10669;51.076;3.714;2022-09-28T16:24:27;4.83;;;1.00;;
21022;SDS011;10669;51.076;3.714;2022-09-28T16:26:59;2.53;;;1.33;;
21022;SDS011;10669;51.076;3.714;2022-09-28T16:29:34;4.93;;;1.10;;
21022;SDS011;10669;51.076;3.714;2022-09-28T16:37:37;4.13;;;1.00;;
21022;SDS011;10669;51.076;3.714;2022-09-28T16:40:11;2.17;;;0.90;;
21022;SDS011;10669;51.076;3.714;2022-09-28T16:42:39;1.10;;;1.00;;
21022;SDS011;10669;51.076;3.714;2022-09-28T16:45:05;1.00;;;0.90;;
21022;SDS011;10669;51.076;3.714;2022-09-28T16:47:36;2.20;;;1.00;;
21022;SDS011;10669;51.076;3.714;2022-09-28T16:50:03;2.57;;;1.47;;
21022;SDS011;10669;51.076;3.714;2022-09-28T16:52:34;3.37;;;1.10;;
21022;SDS011;10669;51.076;3.714;2022-09-28T16:55:20;7.53;;;1.47;;
21022;SDS011;10669;51.076;3.714;2022-09-28T16:57:45;6.83;;;1.40;;
21022;SDS011;10669;51.076;3.714;2022-09-28T17:00:15;2.30;;;1.20;;
21022;SDS011;10669;51.076;3.714;2022-09-28T17:02:45;4.77;;;1.43;;
21022;SDS011;10669;51.076;3.714;2022-09-28T17:05:12;4.10;;;1.60;;
21022;SDS011;10669;51.076;3.714;2022-09-28T17:07:40;5.23;;;1.70;;
21022;SDS011;10669;51.076;3.714;2022-09-28T17:10:12;2.60;;;1.63;;
21022;SDS011;10669;51.076;3.714;2022-09-28T17:12:46;2.87;;;1.47;;
21022;SDS011;10669;51.076;3.714;2022-09-28T17:15:12;3.67;;;1.43;;
21022;SDS011;10669;51.076;3.714;2022-09-28T17:17:40;3.23;;;2.00;;
21022;SDS011;10669;51.076;3.714;2022-09-28T17:20:14;4.30;;;2.10;;
21022;SDS011;10669;51.076;3.714;2022-09-28T17:22:49;4.40;;;1.77;;
21022;SDS011;10669;51.076;3.714;2022-09-28T17:25:15;6.83;;;2.30;;
21022;SDS011;10669;51.076;3.714;2022-09-28T17:27:43;4.37;;;2.57;;
21022;SDS011;10669;51.076;3.714;2022-09-28T17:30:10;11.30;;;6.53;;
21022;SDS011;10669;51.076;3.714;2022-09-28T17:32:37;9.37;;;5.63;;
21022;SDS011;10669;51.076;3.714;2022-09-28T17:35:09;6.97;;;3.97;;
21022;SDS011;10669;51.076;3.714;2022-09-28T17:37:35;3.63;;;2.07;;
21022;SDS011;10669;51.076;3.714;2022-09-28T17:40:02;1.60;;;1.30;;
21022;SDS011;10669;51.076;3.714;2022-09-28T17:42:59;2.53;;;1.40;;
21022;SDS011;10669;51.076;3.714;2022-09-28T17:45:26;1.87;;;1.50;;
21022;SDS011;10669;51.076;3.714;2022-09-28T17:47:55;3.73;;;1.70;;
21022;SDS011;10669;51.076;3.714;2022-09-28T17:50:23;4.80;;;2.20;;
21022;SDS011;10669;51.076;3.714;2022-09-28T17:52:50;3.73;;;1.93;;
21022;SDS011;10669;51.076;3.714;2022-09-28T17:55:20;2.20;;;1.57;;
21022;SDS011;10669;51.076;3.714;2022-09-28T17:57:48;2.90;;;1.63;;
21022;SDS011;10669;51.076;3.714;2022-09-28T18:00:15;2.40;;;1.60;;
21022;SDS011;10669;51.076;3.714;2022-09-28T18:02:42;2.27;;;1.53;;
21022;SDS011;10669;51.076;3.714;2022-09-28T18:05:10;1.80;;;1.50;;
21022;SDS011;10669;51.076;3.714;2022-09-28T18:07:38;2.57;;;1.77;;